sensor_id;sensor_type;location;lat;lon;timestamp;pressure;altitude;pressure_sealevel;temperature;humidity
34073;BME280;20346;52.702;16.886;2023-04-10T06:22:57;101962.19;;;12.52;71.43
34073;BME280;20346;52.702;16.886;2023-04-10T06:25:43;101968.37;;;13.12;71.49
34073;BME280;20346;52.702;16.886;2023-04-10T06:43:16;101966.25;;;16.10;70.89
34073;BME280;20346;52.702;16.886;2023-04-10T06:45:59;101959.45;;;16.66;70.45
34073;BME280;20346;52.702;16.886;2023-04-10T06:48:41;101954.94;;;17.15;70.21
34073;BME280;20346;52.702;16.886;2023-04-10T06:54:15;101950.35;;;17.92;69.52
34073;BME280;20346;52.702;16.886;2023-04-10T06:56:55;101954.07;;;18.03;69.94
34073;BME280;20346;52.702;16.886;2023-04-10T06:59:35;101953.09;;;18.45;70.28
34073;BME280;20346;52.702;16.886;2023-04-10T07:02:15;101955.63;;;19.03;70.11
34073;BME280;20346;52.702;16.886;2023-04-10T07:04:56;101953.48;;;19.56;69.53
34073;BME280;20346;52.702;16.886;2023-04-10T07:07:36;101955.95;;;20.02;69.16
34073;BME280;20346;52.702;16.886;2023-04-10T07:10:16;101953.81;;;20.48;69.09
34073;BME280;20346;52.702;16.886;2023-04-10T07:12:56;101956.07;;;20.82;68.64
34073;BME280;20346;52.702;16.886;2023-04-10T07:15:36;101954.06;;;20.80;68.82
34073;BME280;20346;52.702;16.886;2023-04-10T07:18:16;101953.56;;;21.07;69.05
34073;BME280;20346;52.702;16.886;2023-04-10T07:20:56;101957.60;;;21.72;68.87
34073;BME280;20346;52.702;16.886;2023-04-10T07:23:36;101951.80;;;22.26;68.29
34073;BME280;20346;52.702;16.886;2023-04-10T07:26:16;101956.04;;;22.96;68.36
34073;BME280;20346;52.702;16.886;2023-04-10T07:28:56;101947.34;;;23.77;68.33
34073;BME280;20346;52.702;16.886;2023-04-10T07:31:36;101941.81;;;24.16;68.11
34073;BME280;20346;52.702;16.886;2023-04-10T07:34:16;101942.83;;;24.58;68.56
34073;BME280;20346;52.702;16.886;2023-04-10T07:36:56;101939.31;;;25.12;67.56
34073;BME280;20346;52.702;16.886;2023-04-10T07:39:36;101939.86;;;24.40;67.19
34073;BME280;20346;52.702;16.886;2023-04-10T07:43:02;101941.71;;;23.23;67.97
34073;BME280;20346;52.702;16.886;2023-04-10T07:46:30;101944.33;;;22.44;68.32
34073;BME280;20346;52.702;16.886;2023-04-10T07:49:56;101948.15;;;22.05;68.38
34073;BME280;20346;52.702;16.886;2023-04-10T07:53:23;101948.52;;;23.02;67.77
34073;BME280;20346;52.702;16.886;2023-04-10T07:56:50;101949.57;;;24.16;66.16
34073;BME280;20346;52.702;16.886;2023-04-10T08:00:15;101944.86;;;24.97;64.60
34073;BME280;20346;52.702;16.886;2023-04-10T08:03:18;101943.23;;;25.79;64.73
34073;BME280;20346;52.702;16.886;2023-04-10T08:05:55;101939.54;;;26.49;64.78
34073;BME280;20346;52.702;16.886;2023-04-10T08:08:29;101938.05;;;27.06;63.92
34073;BME280;20346;52.702;16.886;2023-04-10T08:11:05;101934.57;;;27.72;64.26
34073;BME280;20346;52.702;16.886;2023-04-10T08:13:37;101932.13;;;28.30;63.12
34073;BME280;20346;52.702;16.886;2023-04-10T08:16:11;101930.91;;;28.87;63.45
34073;BME280;20346;52.702;16.886;2023-04-10T08:18:44;101924.71;;;29.59;63.50
34073;BME280;20346;52.702;16.886;2023-04-10T08:21:19;101921.64;;;30.15;62.67
34073;BME280;20346;52.702;16.886;2023-04-10T08:23:56;101918.77;;;30.22;62.03
34073;BME280;20346;52.702;16.886;2023-04-10T08:26:26;101911.56;;;30.50;62.44
34073;BME280;20346;52.702;16.886;2023-04-10T08:28:59;101913.04;;;31.07;62.09
34073;BME280;20346;52.702;16.886;2023-04-10T08:31:32;101907.56;;;31.53;62.14
34073;BME280;20346;52.702;16.886;2023-04-10T08:36:53;101889.37;;;31.99;61.47
34073;BME280;20346;52.702;16.886;2023-04-10T08:39:28;101888.46;;;30.86;60.44
34073;BME280;20346;52.702;16.886;2023-04-10T08:42:02;101887.36;;;28.28;61.51
34073;BME280;20346;52.702;16.886;2023-04-10T08:44:35;101889.70;;;26.30;62.28
34073;BME280;20346;52.702;16.886;2023-04-10T08:47:09;101890.98;;;24.80;62.36
34073;BME280;20346;52.702;16.886;2023-04-10T08:49:46;101897.64;;;23.53;62.42
34073;BME280;20346;52.702;16.886;2023-04-10T08:52:20;101888.66;;;22.35;61.98
34073;BME280;20346;52.702;16.886;2023-04-10T08:54:53;101891.16;;;21.41;61.56
34073;BME280;20346;52.702;16.886;2023-04-10T08:57:26;101889.83;;;20.64;61.06
34073;BME280;20346;52.702;16.886;2023-04-10T08:59:59;101890.08;;;19.78;60.60
34073;BME280;20346;52.702;16.886;2023-04-10T09:02:33;101888.86;;;18.98;60.54
34073;BME280;20346;52.702;16.886;2023-04-10T09:05:09;101883.67;;;18.36;60.30
34073;BME280;20346;52.702;16.886;2023-04-10T09:07:40;101886.69;;;17.84;59.74
34073;BME280;20346;52.702;16.886;2023-04-10T09:10:14;101877.83;;;17.33;59.83
34073;BME280;20346;52.702;16.886;2023-04-10T09:12:47;101876.29;;;17.03;59.81
34073;BME280;20346;52.702;16.886;2023-04-10T09:15:21;101871.46;;;16.77;59.53
34073;BME280;20346;52.702;16.886;2023-04-10T09:20:31;101867.62;;;16.10;58.76
34073;BME280;20346;52.702;16.886;2023-04-10T09:23:20;101869.60;;;15.77;58.48
34073;BME280;20346;52.702;16.886;2023-04-10T09:25:53;101866.95;;;15.49;58.63
34073;BME280;20346;52.702;16.886;2023-04-10T09:28:27;101868.17;;;15.26;58.46
34073;BME280;20346;52.702;16.886;2023-04-10T09:31:01;101863.70;;;15.12;58.52
34073;BME280;20346;52.702;16.886;2023-04-10T09:34:29;101859.71;;;15.02;58.34
34073;BME280;20346;52.702;16.886;2023-04-10T09:37:05;101859.41;;;14.85;58.07
34073;BME280;20346;52.702;16.886;2023-04-10T09:39:39;101855.63;;;14.70;58.05
34073;BME280;20346;52.702;16.886;2023-04-10T09:42:34;101857.73;;;14.56;57.86
34073;BME280;20346;52.702;16.886;2023-04-10T09:45:06;101856.18;;;14.41;58.02
34073;BME280;20346;52.702;16.886;2023-04-10T09:47:40;101855.71;;;14.35;57.95
34073;BME280;20346;52.702;16.886;2023-04-10T09:50:16;101850.62;;;14.25;58.01
34073;BME280;20346;52.702;16.886;2023-04-10T09:52:56;101847.16;;;14.24;57.94
34073;BME280;20346;52.702;16.886;2023-04-10T09:55:26;101845.77;;;14.24;57.85
34073;BME280;20346;52.702;16.886;2023-04-10T09:58:01;101845.89;;;14.15;57.64
34073;BME280;20346;52.702;16.886;2023-04-10T10:00:39;101835.90;;;14.07;57.66
34073;BME280;20346;52.702;16.886;2023-04-10T10:03:12;101833.19;;;14.03;57.54
34073;BME280;20346;52.702;16.886;2023-04-10T10:05:45;101827.42;;;14.06;57.74
34073;BME280;20346;52.702;16.886;2023-04-10T10:08:17;101831.58;;;14.07;57.52
34073;BME280;20346;52.702;16.886;2023-04-10T10:10:52;101827.77;;;14.05;57.57
34073;BME280;20346;52.702;16.886;2023-04-10T10:13:29;101823.78;;;14.06;57.54
34073;BME280;20346;52.702;16.886;2023-04-10T10:19:11;101818.56;;;14.08;57.57
34073;BME280;20346;52.702;16.886;2023-04-10T10:21:39;101810.55;;;14.10;57.70
34073;BME280;20346;52.702;16.886;2023-04-10T10:24:15;101806.54;;;14.12;57.57
34073;BME280;20346;52.702;16.886;2023-04-10T10:26:49;101803.59;;;14.13;57.53
34073;BME280;20346;52.702;16.886;2023-04-10T10:29:22;101800.81;;;14.13;57.74
34073;BME280;20346;52.702;16.886;2023-04-10T10:31:57;101797.31;;;14.15;57.54
34073;BME280;20346;52.702;16.886;2023-04-10T10:34:29;101794.35;;;14.16;57.73
34073;BME280;20346;52.702;16.886;2023-04-10T10:37:03;101791.02;;;14.19;57.77
34073;BME280;20346;52.702;16.886;2023-04-10T10:42:22;101790.55;;;14.16;57.64
34073;BME280;20346;52.702;16.886;2023-04-10T10:47:39;101783.06;;;14.32;58.12
34073;BME280;20346;52.702;16.886;2023-04-10T10:50:11;101784.71;;;14.39;57.82
34073;BME280;20346;52.702;16.886;2023-04-10T10:55:36;101770.35;;;14.52;57.92
34073;BME280;20346;52.702;16.886;2023-04-10T10:58:09;101769.34;;;14.60;58.12
34073;BME280;20346;52.702;16.886;2023-04-10T11:05:57;101762.33;;;14.65;57.58
34073;BME280;20346;52.702;16.886;2023-04-10T11:11:19;101757.11;;;14.66;57.54
34073;BME280;20346;52.702;16.886;2023-04-10T11:19:02;101750.54;;;14.64;57.46
34073;BME280;20346;52.702;16.886;2023-04-10T11:21:43;101747.89;;;14.67;57.45
34073;BME280;20346;52.702;16.886;2023-04-10T11:24:09;101746.27;;;14.70;57.51
34073;BME280;20346;52.702;16.886;2023-04-10T11:26:43;101746.35;;;14.77;57.52
34073;BME280;20346;52.702;16.886;2023-04-10T11:32:03;101735.02;;;14.69;57.28
34073;BME280;20346;52.702;16.886;2023-04-10T11:34:42;101731.39;;;14.68;57.40
34073;BME280;20346;52.702;16.886;2023-04-10T11:37:10;101725.62;;;14.70;57.53
34073;BME280;20346;52.702;16.886;2023-04-10T11:40:06;101721.63;;;14.82;57.71
34073;BME280;20346;52.702;16.886;2023-04-10T11:42:40;101716.35;;;14.86;57.44
34073;BME280;20346;52.702;16.886;2023-04-10T11:45:23;101717.06;;;14.85;57.29
34073;BME280;20346;52.702;16.886;2023-04-10T11:47:59;101714.79;;;14.86;57.27
34073;BME280;20346;52.702;16.886;2023-04-10T11:50:32;101713.38;;;14.88;57.26
34073;BME280;20346;52.702;16.886;2023-04-10T11:53:18;101710.05;;;14.89;57.36
34073;BME280;20346;52.702;16.886;2023-04-10T11:55:51;101707.27;;;14.90;57.26
34073;BME280;20346;52.702;16.886;2023-04-10T11:58:25;101701.02;;;14.88;57.39
34073;BME280;20346;52.702;16.886;2023-04-10T12:00:59;101695.54;;;14.85;57.25
34073;BME280;20346;52.702;16.886;2023-04-10T12:06:09;101690.61;;;14.89;57.40
34073;BME280;20346;52.702;16.886;2023-04-10T12:08:42;101690.99;;;14.97;57.46
34073;BME280;20346;52.702;16.886;2023-04-10T12:11:22;101685.70;;;15.03;57.48
34073;BME280;20346;52.702;16.886;2023-04-10T12:13:55;101678.10;;;15.08;57.43
34073;BME280;20346;52.702;16.886;2023-04-10T12:16:28;101673.86;;;15.12;57.52
34073;BME280;20346;52.702;16.886;2023-04-10T12:19:01;101673.64;;;15.14;57.24
34073;BME280;20346;52.702;16.886;2023-04-10T12:21:45;101673.61;;;15.16;57.23
34073;BME280;20346;52.702;16.886;2023-04-10T12:27:14;101665.61;;;15.17;57.29
34073;BME280;20346;52.702;16.886;2023-04-10T12:29:53;101661.53;;;15.21;57.31
34073;BME280;20346;52.702;16.886;2023-04-10T12:32:26;101666.11;;;15.28;57.03
34073;BME280;20346;52.702;16.886;2023-04-10T12:35:00;101658.52;;;15.25;57.02
34073;BME280;20346;52.702;16.886;2023-04-10T12:37:46;101659.61;;;15.22;57.18
34073;BME280;20346;52.702;16.886;2023-04-10T12:40:19;101656.56;;;15.27;57.43
34073;BME280;20346;52.702;16.886;2023-04-10T12:42:54;101649.86;;;15.33;57.31
34073;BME280;20346;52.702;16.886;2023-04-10T12:45:40;101643.97;;;15.40;57.37
34073;BME280;20346;52.702;16.886;2023-04-10T12:48:21;101640.73;;;15.47;57.20
34073;BME280;20346;52.702;16.886;2023-04-10T12:50:55;101637.21;;;15.48;57.22
34073;BME280;20346;52.702;16.886;2023-04-10T12:53:29;101639.10;;;15.49;57.08
34073;BME280;20346;52.702;16.886;2023-04-10T12:56:03;101636.84;;;15.50;57.16
34073;BME280;20346;52.702;16.886;2023-04-10T12:58:36;101635.23;;;15.52;56.85
34073;BME280;20346;52.702;16.886;2023-04-10T13:01:09;101638.84;;;15.53;57.10
34073;BME280;20346;52.702;16.886;2023-04-10T13:03:43;101634.48;;;15.54;56.97
34073;BME280;20346;52.702;16.886;2023-04-10T13:06:17;101631.52;;;15.56;56.94
34073;BME280;20346;52.702;16.886;2023-04-10T13:08:51;101629.00;;;15.60;56.98
34073;BME280;20346;52.702;16.886;2023-04-10T13:11:48;101622.61;;;15.66;57.09
34073;BME280;20346;52.702;16.886;2023-04-10T13:15:15;101617.94;;;15.73;57.03
34073;BME280;20346;52.702;16.886;2023-04-10T13:18:44;101613.84;;;15.77;57.09
34073;BME280;20346;52.702;16.886;2023-04-10T13:22:13;101604.17;;;15.82;57.24
34073;BME280;20346;52.702;16.886;2023-04-10T13:25:40;101601.30;;;15.86;57.16
34073;BME280;20346;52.702;16.886;2023-04-10T13:29:07;101596.78;;;15.87;57.16
34073;BME280;20346;52.702;16.886;2023-04-10T13:32:33;101592.73;;;15.89;57.11
34073;BME280;20346;52.702;16.886;2023-04-10T13:36:00;101586.96;;;15.91;57.02
34073;BME280;20346;52.702;16.886;2023-04-10T13:39:27;101581.51;;;15.93;57.20
34073;BME280;20346;52.702;16.886;2023-04-10T13:42:53;101582.14;;;15.96;57.11
34073;BME280;20346;52.702;16.886;2023-04-10T13:46:34;101580.38;;;15.97;57.21
34073;BME280;20346;52.702;16.886;2023-04-10T13:50:06;101572.08;;;15.95;57.10
34073;BME280;20346;52.702;16.886;2023-04-10T13:53:33;101568.26;;;15.95;57.19
34073;BME280;20346;52.702;16.886;2023-04-10T13:56:59;101559.11;;;15.92;57.14
34073;BME280;20346;52.702;16.886;2023-04-10T13:59:56;101555.64;;;15.92;57.18
34073;BME280;20346;52.702;16.886;2023-04-10T14:03:22;101551.84;;;15.90;57.13
34073;BME280;20346;52.702;16.886;2023-04-10T14:06:48;101551.88;;;15.88;57.02
34073;BME280;20346;52.702;16.886;2023-04-10T14:10:15;101544.11;;;15.86;57.08
34073;BME280;20346;52.702;16.886;2023-04-10T14:13:43;101542.79;;;15.82;57.13
34073;BME280;20346;52.702;16.886;2023-04-10T14:17:09;101538.16;;;15.80;57.03
34073;BME280;20346;52.702;16.886;2023-04-10T14:20:36;101532.36;;;15.75;57.01
34073;BME280;20346;52.702;16.886;2023-04-10T14:24:02;101531.20;;;15.72;57.17
34073;BME280;20346;52.702;16.886;2023-04-10T14:27:29;101525.88;;;15.69;57.14
34073;BME280;20346;52.702;16.886;2023-04-10T14:30:55;101521.95;;;15.66;57.12
34073;BME280;20346;52.702;16.886;2023-04-10T14:34:21;101521.50;;;15.64;57.18
34073;BME280;20346;52.702;16.886;2023-04-10T14:37:52;101515.45;;;15.62;57.22
34073;BME280;20346;52.702;16.886;2023-04-10T14:41:20;101506.59;;;15.62;57.12
34073;BME280;20346;52.702;16.886;2023-04-10T14:44:55;101501.12;;;15.59;57.26
34073;BME280;20346;52.702;16.886;2023-04-10T14:48:22;101499.25;;;15.56;57.27
34073;BME280;20346;52.702;16.886;2023-04-10T14:51:49;101497.19;;;15.55;57.36
34073;BME280;20346;52.702;16.886;2023-04-10T14:55:16;101492.16;;;15.54;57.34
34073;BME280;20346;52.702;16.886;2023-04-10T14:58:42;101489.03;;;15.54;57.30
34073;BME280;20346;52.702;16.886;2023-04-10T15:02:09;101486.79;;;15.53;57.17
34073;BME280;20346;52.702;16.886;2023-04-10T15:05:35;101480.73;;;15.52;57.22
34073;BME280;20346;52.702;16.886;2023-04-10T15:09:02;101476.27;;;15.49;57.10
34073;BME280;20346;52.702;16.886;2023-04-10T15:12:28;101473.42;;;15.45;57.08
34073;BME280;20346;52.702;16.886;2023-04-10T15:15:54;101467.41;;;15.42;57.05
34073;BME280;20346;52.702;16.886;2023-04-10T15:19:21;101471.45;;;15.40;57.18
34073;BME280;20346;52.702;16.886;2023-04-10T15:22:47;101468.28;;;15.42;57.05
34073;BME280;20346;52.702;16.886;2023-04-10T15:26:14;101462.15;;;15.44;57.06
34073;BME280;20346;52.702;16.886;2023-04-10T15:29:41;101451.39;;;15.43;57.01
34073;BME280;20346;52.702;16.886;2023-04-10T15:33:06;101446.91;;;15.42;57.18
34073;BME280;20346;52.702;16.886;2023-04-10T15:36:32;101447.12;;;15.40;57.12
34073;BME280;20346;52.702;16.886;2023-04-10T15:39:59;101437.98;;;15.37;57.19
34073;BME280;20346;52.702;16.886;2023-04-10T15:43:25;101437.52;;;15.34;57.02
34073;BME280;20346;52.702;16.886;2023-04-10T15:46:51;101432.31;;;15.34;57.17
34073;BME280;20346;52.702;16.886;2023-04-10T15:50:18;101428.55;;;15.32;57.30
34073;BME280;20346;52.702;16.886;2023-04-10T15:53:47;101423.42;;;15.27;57.26
34073;BME280;20346;52.702;16.886;2023-04-10T15:57:13;101415.52;;;15.24;57.32
34073;BME280;20346;52.702;16.886;2023-04-10T16:00:39;101409.63;;;15.23;57.19
34073;BME280;20346;52.702;16.886;2023-04-10T16:04:06;101404.45;;;15.21;57.34
34073;BME280;20346;52.702;16.886;2023-04-10T16:07:32;101401.41;;;15.18;57.26
34073;BME280;20346;52.702;16.886;2023-04-10T16:10:59;101398.89;;;15.13;57.12
34073;BME280;20346;52.702;16.886;2023-04-10T16:14:25;101394.64;;;15.10;57.29
34073;BME280;20346;52.702;16.886;2023-04-10T16:17:51;101388.33;;;15.06;57.39
34073;BME280;20346;52.702;16.886;2023-04-10T16:21:18;101382.86;;;15.03;57.34
34073;BME280;20346;52.702;16.886;2023-04-10T16:24:44;101381.18;;;15.00;57.48
34073;BME280;20346;52.702;16.886;2023-04-10T16:28:10;101383.70;;;14.96;57.42
34073;BME280;20346;52.702;16.886;2023-04-10T16:31:37;101375.29;;;14.91;57.52
34073;BME280;20346;52.702;16.886;2023-04-10T16:35:03;101371.77;;;14.86;57.45
34073;BME280;20346;52.702;16.886;2023-04-10T16:38:30;101365.45;;;14.80;57.45
34073;BME280;20346;52.702;16.886;2023-04-10T16:41:56;101361.41;;;14.75;57.34
34073;BME280;20346;52.702;16.886;2023-04-10T16:45:22;101355.80;;;14.69;57.59
34073;BME280;20346;52.702;16.886;2023-04-10T16:48:49;101351.07;;;14.63;57.48
34073;BME280;20346;52.702;16.886;2023-04-10T16:52:15;101347.98;;;14.54;57.49
34073;BME280;20346;52.702;16.886;2023-04-10T16:55:45;101346.59;;;14.46;57.47
34073;BME280;20346;52.702;16.886;2023-04-10T16:59:08;101344.83;;;14.37;57.64
34073;BME280;20346;52.702;16.886;2023-04-10T17:02:40;101338.41;;;14.28;57.64
34073;BME280;20346;52.702;16.886;2023-04-10T17:06:09;101333.55;;;14.19;57.70
34073;BME280;20346;52.702;16.886;2023-04-10T17:09:35;101332.19;;;14.09;57.66
34073;BME280;20346;52.702;16.886;2023-04-10T17:13:02;101329.30;;;13.99;57.80
34073;BME280;20346;52.702;16.886;2023-04-10T17:16:28;101327.05;;;13.88;57.75
34073;BME280;20346;52.702;16.886;2023-04-10T17:19:55;101327.73;;;13.80;57.87
34073;BME280;20346;52.702;16.886;2023-04-10T17:23:21;101327.05;;;13.69;57.87
34073;BME280;20346;52.702;16.886;2023-04-10T17:26:48;101327.94;;;13.57;57.86
34073;BME280;20346;52.702;16.886;2023-04-10T17:30:14;101321.77;;;13.45;57.97
34073;BME280;20346;52.702;16.886;2023-04-10T17:33:41;101320.41;;;13.33;57.98
34073;BME280;20346;52.702;16.886;2023-04-10T17:37:07;101322.45;;;13.24;57.98
34073;BME280;20346;52.702;16.886;2023-04-10T17:40:33;101315.16;;;13.13;57.97
34073;BME280;20346;52.702;16.886;2023-04-10T17:43:36;101309.92;;;13.03;58.05
34073;BME280;20346;52.702;16.886;2023-04-10T17:46:31;101313.19;;;12.95;58.05
34073;BME280;20346;52.702;16.886;2023-04-10T17:49:57;101313.36;;;12.82;58.04
34073;BME280;20346;52.702;16.886;2023-04-10T17:52:59;101315.09;;;12.71;57.96
34073;BME280;20346;52.702;16.886;2023-04-10T17:56:25;101312.66;;;12.57;58.17
34073;BME280;20346;52.702;16.886;2023-04-10T17:59:51;101307.66;;;12.45;58.29
34073;BME280;20346;52.702;16.886;2023-04-10T18:03:18;101305.91;;;12.33;58.28
34073;BME280;20346;52.702;16.886;2023-04-10T18:06:44;101305.89;;;12.20;58.30
34073;BME280;20346;52.702;16.886;2023-04-10T18:10:10;101306.21;;;12.07;58.43
34073;BME280;20346;52.702;16.886;2023-04-10T18:13:37;101312.02;;;11.98;58.45
34073;BME280;20346;52.702;16.886;2023-04-10T18:17:03;101305.77;;;11.86;58.41
34073;BME280;20346;52.702;16.886;2023-04-10T18:20:31;101307.08;;;11.73;58.44
34073;BME280;20346;52.702;16.886;2023-04-10T18:23:57;101304.59;;;11.61;58.53
34073;BME280;20346;52.702;16.886;2023-04-10T18:27:24;101302.44;;;11.50;58.63
34073;BME280;20346;52.702;16.886;2023-04-10T18:30:50;101304.98;;;11.40;58.62
34073;BME280;20346;52.702;16.886;2023-04-10T18:34:16;101303.17;;;11.28;58.70
34073;BME280;20346;52.702;16.886;2023-04-10T18:37:43;101301.86;;;11.19;58.82
34073;BME280;20346;52.702;16.886;2023-04-10T18:41:09;101295.71;;;11.11;58.72
34073;BME280;20346;52.702;16.886;2023-04-10T18:44:36;101290.25;;;11.02;59.05
34073;BME280;20346;52.702;16.886;2023-04-10T18:48:02;101282.20;;;10.93;59.21
34073;BME280;20346;52.702;16.886;2023-04-10T18:51:30;101279.35;;;10.86;59.25
34073;BME280;20346;52.702;16.886;2023-04-10T18:54:55;101272.65;;;10.81;59.27
34073;BME280;20346;52.702;16.886;2023-04-10T18:58:22;101273.73;;;10.76;59.42
34073;BME280;20346;52.702;16.886;2023-04-10T19:01:48;101268.75;;;10.71;59.48
34073;BME280;20346;52.702;16.886;2023-04-10T19:05:14;101267.90;;;10.68;59.44
34073;BME280;20346;52.702;16.886;2023-04-10T19:08:41;101266.36;;;10.66;59.46
34073;BME280;20346;52.702;16.886;2023-04-10T19:12:10;101268.28;;;10.63;59.41
34073;BME280;20346;52.702;16.886;2023-04-10T19:15:46;101267.27;;;10.59;59.49
34073;BME280;20346;52.702;16.886;2023-04-10T19:19:05;101263.32;;;10.54;59.58
34073;BME280;20346;52.702;16.886;2023-04-10T19:22:32;101265.58;;;10.51;59.55
34073;BME280;20346;52.702;16.886;2023-04-10T19:25:59;101262.34;;;10.45;59.61
34073;BME280;20346;52.702;16.886;2023-04-10T19:29:26;101260.48;;;10.40;59.56
34073;BME280;20346;52.702;16.886;2023-04-10T19:32:54;101256.73;;;10.33;59.61
34073;BME280;20346;52.702;16.886;2023-04-10T19:36:21;101260.04;;;10.26;59.70
34073;BME280;20346;52.702;16.886;2023-04-10T19:39:48;101259.20;;;10.21;59.89
34073;BME280;20346;52.702;16.886;2023-04-10T19:43:14;101260.73;;;10.17;59.87
34073;BME280;20346;52.702;16.886;2023-04-10T19:46:40;101262.31;;;10.11;59.89
34073;BME280;20346;52.702;16.886;2023-04-10T19:50:06;101256.30;;;10.06;60.01
34073;BME280;20346;52.702;16.886;2023-04-10T19:53:32;101252.34;;;10.03;60.07
34073;BME280;20346;52.702;16.886;2023-04-10T19:57:00;101249.77;;;10.00;60.12
34073;BME280;20346;52.702;16.886;2023-04-10T20:00:26;101249.44;;;9.97;60.20
34073;BME280;20346;52.702;16.886;2023-04-10T20:03:53;101242.39;;;9.92;60.20
34073;BME280;20346;52.702;16.886;2023-04-10T20:07:19;101238.63;;;9.88;60.26
34073;BME280;20346;52.702;16.886;2023-04-10T20:10:46;101233.67;;;9.83;60.28
34073;BME280;20346;52.702;16.886;2023-04-10T20:14:12;101227.66;;;9.74;60.37
34073;BME280;20346;52.702;16.886;2023-04-10T20:17:39;101220.97;;;9.67;60.49
34073;BME280;20346;52.702;16.886;2023-04-10T20:21:06;101219.25;;;9.63;60.59
34073;BME280;20346;52.702;16.886;2023-04-10T20:24:32;101214.27;;;9.59;60.61
34073;BME280;20346;52.702;16.886;2023-04-10T20:27:58;101210.49;;;9.55;60.66
34073;BME280;20346;52.702;16.886;2023-04-10T20:31:27;101210.67;;;9.51;60.77
34073;BME280;20346;52.702;16.886;2023-04-10T20:33:59;101206.55;;;9.48;60.76
34073;BME280;20346;52.702;16.886;2023-04-10T20:36:33;101206.38;;;9.45;60.81
34073;BME280;20346;52.702;16.886;2023-04-10T20:39:12;101204.84;;;9.42;60.82
34073;BME280;20346;52.702;16.886;2023-04-10T20:41:46;101199.67;;;9.41;60.95
34073;BME280;20346;52.702;16.886;2023-04-10T20:44:19;101203.13;;;9.40;61.07
34073;BME280;20346;52.702;16.886;2023-04-10T20:46:53;101191.94;;;9.39;61.10
34073;BME280;20346;52.702;16.886;2023-04-10T20:49:26;101188.84;;;9.38;61.10
34073;BME280;20346;52.702;16.886;2023-04-10T20:52:00;101180.27;;;9.36;61.10
34073;BME280;20346;52.702;16.886;2023-04-10T20:54:33;101179.77;;;9.34;61.13
34073;BME280;20346;52.702;16.886;2023-04-10T20:57:14;101179.94;;;9.30;61.18
34073;BME280;20346;52.702;16.886;2023-04-10T20:59:45;101175.81;;;9.27;61.20
34073;BME280;20346;52.702;16.886;2023-04-10T21:02:18;101169.98;;;9.21;61.08
34073;BME280;20346;52.702;16.886;2023-04-10T21:07:45;101158.30;;;9.08;61.46
34073;BME280;20346;52.702;16.886;2023-04-10T21:13:07;101149.87;;;9.05;61.51
34073;BME280;20346;52.702;16.886;2023-04-10T21:15:42;101149.02;;;9.03;61.52
34073;BME280;20346;52.702;16.886;2023-04-10T21:18:18;101146.27;;;9.00;61.54
34073;BME280;20346;52.702;16.886;2023-04-10T21:23:43;101138.88;;;8.96;61.61
34073;BME280;20346;52.702;16.886;2023-04-10T21:29:04;101135.78;;;8.94;61.83
34073;BME280;20346;52.702;16.886;2023-04-10T21:31:42;101128.90;;;8.94;61.84
34073;BME280;20346;52.702;16.886;2023-04-10T21:34:12;101124.09;;;8.93;61.86
34073;BME280;20346;52.702;16.886;2023-04-10T21:45:16;101106.20;;;8.89;62.05
34073;BME280;20346;52.702;16.886;2023-04-10T21:47:49;101102.26;;;8.89;62.11
34073;BME280;20346;52.702;16.886;2023-04-10T21:50:23;101092.97;;;8.89;62.19
34073;BME280;20346;52.702;16.886;2023-04-10T21:55:45;101089.36;;;8.86;62.25
34073;BME280;20346;52.702;16.886;2023-04-10T21:58:22;101090.23;;;8.85;62.34
34073;BME280;20346;52.702;16.886;2023-04-10T22:06:30;101083.05;;;8.82;62.60
34073;BME280;20346;52.702;16.886;2023-04-10T22:09:04;101082.19;;;8.83;62.53
34073;BME280;20346;52.702;16.886;2023-04-10T22:14:26;101069.98;;;8.81;62.56
34073;BME280;20346;52.702;16.886;2023-04-10T22:22:36;101060.19;;;8.77;62.71
34073;BME280;20346;52.702;16.886;2023-04-10T22:27:58;101051.94;;;8.75;62.87
34073;BME280;20346;52.702;16.886;2023-04-10T22:30:32;101050.91;;;8.74;62.87
34073;BME280;20346;52.702;16.886;2023-04-10T22:35:56;101046.44;;;8.72;63.00
34073;BME280;20346;52.702;16.886;2023-04-10T22:38:30;101040.25;;;8.74;63.03
34073;BME280;20346;52.702;16.886;2023-04-10T22:41:04;101042.30;;;8.72;63.03
34073;BME280;20346;52.702;16.886;2023-04-10T22:43:38;101041.64;;;8.70;63.15
34073;BME280;20346;52.702;16.886;2023-04-10T22:46:13;101043.86;;;8.71;63.25
34073;BME280;20346;52.702;16.886;2023-04-10T22:48:47;101042.15;;;8.70;63.26
34073;BME280;20346;52.702;16.886;2023-04-10T22:51:21;101041.80;;;8.70;63.31
34073;BME280;20346;52.702;16.886;2023-04-10T22:53:58;101037.84;;;8.70;63.30
34073;BME280;20346;52.702;16.886;2023-04-10T22:56:31;101033.56;;;8.67;63.32
34073;BME280;20346;52.702;16.886;2023-04-10T23:15:53;101000.05;;;8.61;63.53
34073;BME280;20346;52.702;16.886;2023-04-10T23:18:26;100992.15;;;8.58;63.71
34073;BME280;20346;52.702;16.886;2023-04-10T23:23:52;100981.68;;;8.54;63.70
34073;BME280;20346;52.702;16.886;2023-04-10T23:29:15;100971.72;;;8.52;63.88
34073;BME280;20346;52.702;16.886;2023-04-10T23:37:25;100955.90;;;8.54;63.92
34073;BME280;20346;52.702;16.886;2023-04-10T23:42:46;100949.38;;;8.54;64.04
34073;BME280;20346;52.702;16.886;2023-04-10T23:45:19;100943.02;;;8.53;64.22
34073;BME280;20346;52.702;16.886;2023-04-10T23:47:52;100938.55;;;8.55;64.15
34073;BME280;20346;52.702;16.886;2023-04-10T23:50:26;100927.38;;;8.55;64.14